createdAt,value
2019-04-14T00:04:31.250Z,43.38
2019-04-14T00:09:29.349Z,43.54
2019-04-14T00:14:27.213Z,43.55
2019-04-14T00:19:24.319Z,43.79
2019-04-14T00:24:21.388Z,44.16
2019-04-14T00:29:19.506Z,44.09
2019-04-14T00:34:24.588Z,44.53
2019-04-14T00:39:27.272Z,44.02
2019-04-14T00:44:36.526Z,44.28
2019-04-14T00:49:33.999Z,44.60
2019-04-14T00:54:31.062Z,44.07
2019-04-14T00:59:29.051Z,44.02
2019-04-14T01:04:27.231Z,44.01
2019-04-14T01:09:24.435Z,43.64
2019-04-14T01:14:21.391Z,43.68
2019-04-14T01:19:19.874Z,43.85
2019-04-14T01:24:18.587Z,43.64
2019-04-14T01:29:16.578Z,43.41
2019-04-14T01:34:15.085Z,43.01
2019-04-14T01:39:13.295Z,43.85
2019-04-14T01:44:11.243Z,43.86
2019-04-14T01:49:09.350Z,43.56
2019-04-14T01:54:17.125Z,43.59
2019-04-14T01:59:15.217Z,44.15
2019-04-14T02:04:12.405Z,44.40
2019-04-14T02:09:11.886Z,44.48
2019-04-14T02:14:10.408Z,44.62
2019-04-14T02:19:08.790Z,45.25
2019-04-14T02:24:07.023Z,44.91
2019-04-14T02:29:05.636Z,44.88
2019-04-14T02:34:34.699Z,45.50
2019-04-14T02:39:31.491Z,45.83
2019-04-14T02:44:34.308Z,46.01
2019-04-14T02:49:27.293Z,46.03
2019-04-14T02:59:19.722Z,45.80
2019-04-14T03:04:19.482Z,46.44
2019-04-14T03:09:30.513Z,46.09
2019-04-14T03:14:25.118Z,46.93
2019-04-14T03:19:48.516Z,48.44
2019-04-14T03:24:34.091Z,48.34
2019-04-14T03:29:43.703Z,47.89
2019-04-14T03:34:55.165Z,48.00
2019-04-14T03:49:45.431Z,49.28
2019-04-14T03:54:33.148Z,50.30
2019-04-14T03:59:15.179Z,49.91
2019-04-14T04:04:14.154Z,50.74
2019-04-14T04:09:12.484Z,50.75
2019-04-14T04:14:09.774Z,51.11
2019-04-14T04:19:20.098Z,50.62
2019-04-14T04:24:33.423Z,50.95
2019-04-14T04:29:39.793Z,51.46
2019-04-14T04:34:38.681Z,51.13
2019-04-14T04:39:41.270Z,51.26
2019-04-14T04:44:38.381Z,51.42
2019-04-14T04:49:36.182Z,51.62
2019-04-14T04:54:34.223Z,50.73
2019-04-14T04:59:32.094Z,50.67
2019-04-14T05:04:29.165Z,50.35
2019-04-14T05:09:36.243Z,49.00
2019-04-14T05:14:48.102Z,47.40
2019-04-14T05:19:45.558Z,46.61
2019-04-14T05:24:43.968Z,45.83
2019-04-14T05:29:41.188Z,44.30
2019-04-14T05:34:39.003Z,44.48
2019-04-14T05:39:36.154Z,42.83
2019-04-14T05:44:34.060Z,43.57
2019-04-14T05:49:39.116Z,42.71
2019-04-14T05:54:30.164Z,42.41
2019-04-14T05:59:28.549Z,43.02
2019-04-14T06:04:26.432Z,43.69
2019-04-14T06:09:23.598Z,42.13
2019-04-14T06:14:20.658Z,42.61
2019-04-14T06:19:17.625Z,42.31
2019-04-14T06:24:14.899Z,43.30
2019-04-14T06:29:11.934Z,42.91
2019-04-14T06:34:16.760Z,42.39
2019-04-14T06:39:16.548Z,42.10
2019-04-14T06:44:13.588Z,42.28
2019-04-14T06:49:10.633Z,41.07
2019-04-14T06:54:07.746Z,40.80
2019-04-14T06:59:04.707Z,40.55
2019-04-14T07:04:01.714Z,39.61
2019-04-14T07:08:58.769Z,40.18
2019-04-14T07:13:55.862Z,39.29
2019-04-14T07:18:52.921Z,40.16
2019-04-14T07:23:49.943Z,39.76
2019-04-14T07:28:56.636Z,38.21
2019-04-14T07:33:51.666Z,35.98
2019-04-14T07:38:57.818Z,36.46
2019-04-14T07:44:05.697Z,36.04
2019-04-14T07:49:05.231Z,37.65
2019-04-14T07:54:06.923Z,37.43
2019-04-14T07:59:05.768Z,36.38
2019-04-14T08:04:07.502Z,36.68
2019-04-14T08:09:11.021Z,37.33
2019-04-14T08:14:08.113Z,35.73
2019-04-14T08:19:06.219Z,39.26
2019-04-14T08:24:03.555Z,34.84
2019-04-14T08:29:00.684Z,32.97
2019-04-14T08:33:58.685Z,35.55
2019-04-14T08:38:55.800Z,34.64
2019-04-14T08:44:03.980Z,35.93
2019-04-14T08:49:02.841Z,35.10
2019-04-14T08:54:01.702Z,34.05
2019-04-14T08:59:09.295Z,34.80
2019-04-14T09:04:21.401Z,33.43
2019-04-14T09:09:27.250Z,31.51
2019-04-14T09:14:24.333Z,32.71
2019-04-14T09:19:23.346Z,33.21
2019-04-14T09:24:20.600Z,32.06
2019-04-14T09:29:17.667Z,31.78
2019-04-14T09:34:14.802Z,31.22
2019-04-14T09:39:11.937Z,32.48
2019-04-14T09:44:08.983Z,32.64
2019-04-14T09:49:08.369Z,31.66
2019-04-14T09:54:05.431Z,31.54
2019-04-14T09:59:02.598Z,31.43
2019-04-14T10:03:59.758Z,32.56
2019-04-14T10:08:56.842Z,32.68
2019-04-14T10:13:54.006Z,32.61
2019-04-14T10:18:54.161Z,32.71
2019-04-14T10:23:52.187Z,32.33
2019-04-14T10:28:50.739Z,29.30
2019-04-14T10:33:47.995Z,28.08
2019-04-14T10:38:45.164Z,27.41
2019-04-14T10:43:42.268Z,26.85
2019-04-14T10:48:39.470Z,27.97
2019-04-14T10:53:36.565Z,28.30
2019-04-14T10:58:34.790Z,28.62
2019-04-14T11:03:31.971Z,28.99
2019-04-14T11:08:29.096Z,29.02
2019-04-14T11:13:26.213Z,29.37
2019-04-14T11:18:24.907Z,30.04
2019-04-14T11:23:21.881Z,27.38
2019-04-14T11:28:19.754Z,25.77
2019-04-14T11:33:24.724Z,26.98
2019-04-14T11:38:23.721Z,25.70
2019-04-14T11:43:20.840Z,23.84
2019-04-14T11:48:17.950Z,26.12
2019-04-14T11:53:15.043Z,26.22
2019-04-14T11:58:12.685Z,24.96
2019-04-14T12:03:15.421Z,25.47
2019-04-14T12:08:15.503Z,25.36
2019-04-14T12:13:12.720Z,23.37
2019-04-14T12:18:10.140Z,24.77
2019-04-14T12:23:07.102Z,21.38
2019-04-14T12:28:04.780Z,24.84
2019-04-14T12:33:02.686Z,22.17
2019-04-14T12:38:00.076Z,24.59
2019-04-14T12:43:05.197Z,23.97
2019-04-14T12:48:21.521Z,22.69
2019-04-14T12:53:18.589Z,24.01
2019-04-14T12:58:19.722Z,22.74
2019-04-14T13:03:16.751Z,22.93
2019-04-14T13:08:13.739Z,24.51
2019-04-14T13:13:10.733Z,22.92
2019-04-14T13:18:08.423Z,23.70
2019-04-14T13:23:05.446Z,22.89
2019-04-14T13:28:02.583Z,24.20
2019-04-14T13:32:59.615Z,19.78
2019-04-14T13:37:56.807Z,19.41
2019-04-14T13:42:54.834Z,19.15
2019-04-14T13:47:51.890Z,19.41
2019-04-14T13:52:48.922Z,20.55
2019-04-14T13:57:45.961Z,21.67
2019-04-14T14:02:43.088Z,21.23
2019-04-14T14:07:40.251Z,21.61
2019-04-14T14:12:48.530Z,21.29
2019-04-14T14:17:47.435Z,22.15
2019-04-14T14:22:44.425Z,23.05
2019-04-14T14:27:41.530Z,22.42
2019-04-14T14:32:38.628Z,23.41
2019-04-14T14:37:35.709Z,23.34
2019-04-14T14:42:33.802Z,24.64
2019-04-14T14:47:32.640Z,23.23
2019-04-14T14:52:30.191Z,23.99
2019-04-14T14:57:27.187Z,23.08
2019-04-14T15:02:24.179Z,23.98
2019-04-14T15:07:21.216Z,22.99
2019-04-14T15:12:18.217Z,19.78
2019-04-14T15:17:15.337Z,19.04
2019-04-14T15:22:12.839Z,20.33
2019-04-14T15:27:10.899Z,20.78
2019-04-14T15:32:08.049Z,21.72
2019-04-14T15:37:05.404Z,22.28
2019-04-14T15:42:02.696Z,22.66
2019-04-14T15:47:00.711Z,22.65
2019-04-14T15:51:57.653Z,23.89
2019-04-14T15:57:01.586Z,24.48
2019-04-14T16:02:00.415Z,24.39
2019-04-14T16:06:59.355Z,24.63
2019-04-14T16:11:58.141Z,24.32
2019-04-14T16:16:55.141Z,25.14
2019-04-14T16:21:52.229Z,24.82
2019-04-14T16:27:06.351Z,25.81
2019-04-14T16:32:17.711Z,24.95
2019-04-14T16:37:14.730Z,25.70
2019-04-14T16:42:11.756Z,25.96
2019-04-14T16:47:08.924Z,26.27
2019-04-14T16:52:08.416Z,26.68
2019-04-14T16:57:05.311Z,27.58
2019-04-14T17:02:10.743Z,27.21
2019-04-14T17:07:02.579Z,26.74
2019-04-14T17:11:59.595Z,27.17
2019-04-14T17:16:56.845Z,27.74
2019-04-14T17:21:55.830Z,28.51
2019-04-14T17:26:53.878Z,27.81
2019-04-14T17:31:57.296Z,28.04
2019-04-14T17:37:12.618Z,28.54
2019-04-14T17:42:24.417Z,28.46
2019-04-14T17:47:25.098Z,28.86
2019-04-14T17:52:42.402Z,29.40
2019-04-14T17:57:53.297Z,29.17
2019-04-14T18:03:08.889Z,29.71
2019-04-14T18:08:24.290Z,30.22
2019-04-14T18:13:29.177Z,30.44
2019-04-14T18:18:31.046Z,31.18
2019-04-14T18:23:28.138Z,30.00
2019-04-14T18:28:43.654Z,30.63
2019-04-14T18:33:43.616Z,30.29
2019-04-14T18:38:59.601Z,30.30
2019-04-14T18:44:07.402Z,31.09
2019-04-14T18:49:22.562Z,31.33
2019-04-14T18:54:24.571Z,30.74
2019-04-14T18:59:21.581Z,30.84
2019-04-14T19:04:18.659Z,31.12
2019-04-14T19:09:15.702Z,30.89
2019-04-14T19:14:14.597Z,31.07
2019-04-14T19:19:12.009Z,30.86
2019-04-14T19:24:09.025Z,30.73
2019-04-14T19:29:06.064Z,31.68
2019-04-14T19:34:03.744Z,31.37
2019-04-14T19:39:00.697Z,31.09
2019-04-14T19:43:57.915Z,31.52
2019-04-14T19:54:12.197Z,31.80
2019-04-14T19:59:09.165Z,31.06
2019-04-14T20:04:06.210Z,31.55
2019-04-14T20:09:06.202Z,31.98
2019-04-14T20:14:03.938Z,31.22
2019-04-14T20:19:19.397Z,31.01
2019-04-14T20:24:31.174Z,30.98
2019-04-14T20:29:29.936Z,31.17
2019-04-14T20:34:27.153Z,31.17
2019-04-14T20:39:24.547Z,31.28
2019-04-14T20:44:21.648Z,31.55
2019-04-14T20:49:18.787Z,31.34
2019-04-14T20:54:15.848Z,31.68
2019-04-14T20:59:12.922Z,32.67
2019-04-14T21:04:17.772Z,31.63
2019-04-14T21:09:21.134Z,32.66
2019-04-14T21:14:35.300Z,32.54
2019-04-14T21:19:47.434Z,32.20
2019-04-14T21:24:46.697Z,32.53
2019-04-14T21:29:54.610Z,32.22
2019-04-14T21:35:12.032Z,33.32
2019-04-14T21:40:08.975Z,33.08
2019-04-14T21:45:06.431Z,32.82
2019-04-14T21:50:04.956Z,34.05
2019-04-14T21:55:03.887Z,33.10
2019-04-14T22:00:00.818Z,33.61
2019-04-14T22:05:13.236Z,33.32
2019-04-14T22:10:13.583Z,33.11
2019-04-14T22:15:12.485Z,34.14
2019-04-14T22:20:09.517Z,35.63
2019-04-14T22:25:06.629Z,34.85
2019-04-14T22:30:06.600Z,34.86
2019-04-14T22:35:04.776Z,35.38
2019-04-14T22:40:03.470Z,34.51
2019-04-14T22:45:00.551Z,34.17
2019-04-14T22:49:57.513Z,34.63
2019-04-14T22:54:54.608Z,34.41
2019-04-14T22:59:52.457Z,34.11
2019-04-14T23:05:00.069Z,35.10
2019-04-14T23:10:11.028Z,34.11
2019-04-14T23:15:17.042Z,34.15
2019-04-14T23:20:14.188Z,34.18
2019-04-14T23:25:14.729Z,34.89
2019-04-14T23:30:11.846Z,34.97
2019-04-14T23:35:08.928Z,35.89
2019-04-14T23:40:06.783Z,37.57
2019-04-14T23:45:06.259Z,37.35
2019-04-14T23:50:06.077Z,39.78
2019-04-14T23:55:07.228Z,39.28
